Time;durP1;ratioP1;P1;durP2;ratioP2;P2;SDS_P1;SDS_P2;PMS_P1;PMS_P2;Temp;Humidity;BMP_temperature;BMP_pressure;BME280_temperature;BME280_humidity;BME280_pressure;Samples;Min_cycle;Max_cycle;Signal;HPM_P1;HPM_P2
2022/01/08 00:02:21;;;;;;;24.53;17.90;;;;;;;6.62;96.27;99823.84;5071888;28;20525;-58
2022/01/08 00:04:48;;;;;;;26.17;18.33;;;;;;;6.60;96.51;99824.59;5072032;28;20441;-58
2022/01/08 00:07:15;;;;;;;23.07;16.63;;;;;;;6.57;96.78;99806.59;5071987;28;20202;-58
2022/01/08 00:09:41;;;;;;;21.03;15.27;;;;;;;6.54;96.25;99815.91;5072287;28;20189;-58
2022/01/08 00:12:12;;;;;;;26.83;18.23;;;;;;;6.52;96.12;99814.09;5072334;28;20199;-58
2022/01/08 00:14:40;;;;;;;27.07;18.27;;;;;;;6.57;96.91;99822.78;5069528;28;20178;-57
2022/01/08 00:17:07;;;;;;;27.57;20.30;;;;;;;6.60;95.91;99812.69;5071555;28;20284;-57
2022/01/08 00:19:34;;;;;;;25.00;17.30;;;;;;;6.61;96.77;99813.56;5071590;28;20230;-57
2022/01/08 00:22:01;;;;;;;28.50;18.43;;;;;;;6.65;96.05;99813.72;5069254;28;20193;-57
2022/01/08 00:24:28;;;;;;;23.30;16.90;;;;;;;6.74;95.70;99815.75;5071399;28;20190;-57
2022/01/08 00:26:54;;;;;;;25.03;17.63;;;;;;;6.75;96.06;99813.28;5071713;28;20259;-56
2022/01/08 00:29:23;;;;;;;22.47;16.37;;;;;;;6.80;95.88;99813.44;5069086;28;20716;-58
2022/01/08 00:31:50;;;;;;;25.20;17.73;;;;;;;6.88;95.74;99815.44;5071563;28;20179;-57
2022/01/08 00:34:17;;;;;;;24.00;17.27;;;;;;;6.85;95.53;99807.69;5071465;28;20197;-58
2022/01/08 00:36:44;;;;;;;22.60;16.90;;;;;;;6.85;94.96;99787.25;5082477;28;20574;-57
2022/01/08 00:39:11;;;;;;;25.20;17.70;;;;;;;6.84;95.09;99797.41;5080169;28;20212;-57
2022/01/08 00:41:37;;;;;;;26.90;17.30;;;;;;;6.82;95.13;99797.34;5071874;28;20661;-57
2022/01/08 00:44:05;;;;;;;22.77;15.33;;;;;;;6.91;95.29;99791.69;5072080;28;20201;-57
2022/01/08 00:46:34;;;;;;;20.77;15.50;;;;;;;6.79;95.62;99788.69;5071999;28;20294;-57
2022/01/08 00:49:01;;;;;;;22.53;15.70;;;;;;;6.77;95.69;99783.56;5071690;28;20202;-57
2022/01/08 00:51:28;;;;;;;22.50;16.13;;;;;;;6.81;95.96;99792.19;5053199;28;20548;-57
2022/01/08 00:53:55;;;;;;;23.97;17.47;;;;;;;6.78;96.30;99792.09;5051597;28;20200;-57
2022/01/08 00:56:22;;;;;;;19.77;14.10;;;;;;;6.90;96.70;99784.84;5051868;28;20317;-58
2022/01/08 00:58:49;;;;;;;17.60;13.67;;;;;;;6.84;96.56;99779.53;5051788;28;20198;-58
2022/01/08 01:01:16;;;;;;;16.20;12.70;;;;;;;6.73;96.32;99776.59;5051361;28;20221;-58
2022/01/08 01:03:44;;;;;;;18.98;14.65;;;;;;;6.85;96.14;99781.25;5051078;28;20451;-58
2022/01/08 01:06:11;;;;;;;18.83;13.73;;;;;;;7.00;95.53;99787.75;5051749;28;20201;-58
2022/01/08 01:08:38;;;;;;;17.50;11.43;;;;;;;7.08;95.69;99783.81;5051370;28;20195;-58
2022/01/08 01:11:05;;;;;;;19.87;13.87;;;;;;;7.11;95.27;99773.69;5051187;28;20190;-58
2022/01/08 01:13:31;;;;;;;16.40;11.83;;;;;;;7.01;94.01;99769.09;5051111;28;20231;-58
2022/01/08 01:15:58;;;;;;;18.87;11.90;;;;;;;7.00;94.64;99767.34;5051366;28;20203;-58
2022/01/08 01:18:25;;;;;;;18.20;13.37;;;;;;;7.08;94.99;99768.50;5051062;28;20252;-58
2022/01/08 01:20:53;;;;;;;16.40;12.70;;;;;;;7.10;94.45;99765.97;5051053;28;20733;-58
2022/01/08 01:23:27;;;;;;;16.87;12.47;;;;;;;7.12;94.44;99761.78;5051098;28;20199;-58
2022/01/08 01:25:59;;;;;;;16.07;11.33;;;;;;;7.10;93.50;99755.75;5051170;28;20197;-58
2022/01/08 01:28:37;;;;;;;14.87;11.40;;;;;;;6.78;93.74;99758.88;5050445;28;20233;-58
2022/01/08 01:47:40;;;;;;;18.57;14.07;;;;;;;7.00;96.18;99720.50;5045390;28;20200;-57
2022/01/08 01:50:09;;;;;;;18.80;14.57;;;;;;;7.04;95.61;99712.13;5050918;28;20282;-56
2022/01/08 01:52:38;;;;;;;18.33;13.77;;;;;;;7.02;94.83;99711.19;5050917;28;20198;-56
2022/01/08 01:55:07;;;;;;;19.23;14.53;;;;;;;6.99;94.46;99718.75;5050631;28;20198;-57
2022/01/08 01:57:33;;;;;;;18.13;13.97;;;;;;;7.00;94.42;99715.41;5050349;28;20200;-57
2022/01/08 02:00:00;;;;;;;20.23;14.43;;;;;;;7.05;94.37;99722.41;5050178;28;20225;-57
2022/01/08 02:02:27;;;;;;;19.23;13.73;;;;;;;7.12;94.36;99723.47;5050690;28;20197;-57
2022/01/08 02:04:54;;;;;;;20.33;15.27;;;;;;;7.16;94.46;99722.75;5050615;28;20193;-57
2022/01/08 02:07:23;;;;;;;22.70;14.97;;;;;;;7.16;93.62;99720.19;5050357;28;20205;-57
2022/01/08 02:09:52;;;;;;;22.97;15.23;;;;;;;7.21;93.35;99712.69;5050355;28;20196;-57
2022/01/08 02:12:22;;;;;;;18.43;14.63;;;;;;;7.23;93.61;99711.03;5050373;28;20664;-57
2022/01/08 02:14:50;;;;;;;18.07;14.93;;;;;;;7.23;93.78;99699.13;5050343;28;20193;-57
2022/01/08 02:17:17;;;;;;;22.53;15.67;;;;;;;7.23;93.47;99698.25;5050564;28;20235;-57
2022/01/08 02:19:45;;;;;;;21.00;14.73;;;;;;;7.22;93.51;99689.75;5050134;28;20716;-57
2022/01/08 02:22:16;;;;;;;18.10;14.73;;;;;;;7.23;93.36;99698.25;5050167;28;20195;-58
2022/01/08 02:24:44;;;;;;;20.90;15.43;;;;;;;7.24;93.23;99700.00;5050020;28;20194;-57
2022/01/08 02:27:11;;;;;;;21.77;16.03;;;;;;;7.22;93.63;99687.19;5049804;28;20201;-57
2022/01/08 02:29:38;;;;;;;25.38;20.60;;;;;;;7.29;93.53;99676.34;5049274;28;20431;-57
2022/01/08 02:32:08;;;;;;;26.10;18.37;;;;;;;7.35;93.12;99673.97;5050369;28;20207;-57
2022/01/08 02:34:36;;;;;;;25.53;18.60;;;;;;;7.37;92.98;99674.88;5053072;28;20208;-57
2022/01/08 02:37:03;;;;;;;23.20;17.40;;;;;;;7.38;93.17;99673.22;5050274;28;20662;-57
2022/01/08 02:39:38;;;;;;;24.20;17.70;;;;;;;7.32;93.24;99675.56;5050283;28;20291;-57
2022/01/08 02:42:05;;;;;;;26.00;21.60;;;;;;;7.27;93.75;99669.44;5053277;28;20926;-57
2022/01/08 02:44:32;;;;;;;27.43;18.47;;;;;;;7.33;93.32;99669.66;5054284;28;20279;-57
2022/01/08 02:46:59;;;;;;;24.70;18.30;;;;;;;7.31;93.01;99661.03;5053911;28;20281;-58
2022/01/08 02:49:26;;;;;;;25.53;17.57;;;;;;;7.28;92.93;99663.53;5053624;28;20195;-57
2022/01/08 02:51:53;;;;;;;25.17;18.43;;;;;;;7.27;92.79;99670.31;5054834;28;20189;-57
2022/01/08 02:54:20;;;;;;;24.50;17.87;;;;;;;7.24;92.98;99660.00;5064880;28;20206;-57
2022/01/08 02:56:49;;;;;;;24.80;18.77;;;;;;;7.26;92.37;99662.59;5053840;28;20563;-57
2022/01/08 02:59:17;;;;;;;25.53;18.47;;;;;;;7.24;92.73;99657.44;5054268;28;20646;-57
2022/01/08 03:01:44;;;;;;;22.97;17.13;;;;;;;7.27;92.76;99662.66;5054321;28;20711;-58
2022/01/08 03:04:13;;;;;;;23.90;17.67;;;;;;;7.07;92.81;99625.38;5053928;28;20230;-58
2022/01/08 03:06:40;;;;;;;23.30;17.73;;;;;;;7.27;93.17;99654.09;5053564;28;20285;-58
2022/01/08 03:09:08;;;;;;;25.43;18.63;;;;;;;7.21;92.86;99654.78;5054954;28;20272;-58
2022/01/08 03:11:35;;;;;;;27.57;20.03;;;;;;;7.05;93.36;99625.31;5073889;28;20197;-58
2022/01/08 03:14:03;;;;;;;26.93;19.83;;;;;;;7.27;93.16;99654.09;5060290;28;20203;-58
2022/01/08 03:16:30;;;;;;;26.03;18.80;;;;;;;7.27;92.79;99646.44;5053785;28;20209;-58
2022/01/08 03:18:57;;;;;;;24.33;18.27;;;;;;;7.19;93.11;99648.75;5063098;28;20301;-58
2022/01/08 03:21:24;;;;;;;26.53;18.40;;;;;;;7.21;93.43;99654.78;5073384;28;20310;-58
2022/01/08 03:23:56;;;;;;;25.10;17.60;;;;;;;7.22;93.33;99653.97;5073683;28;20198;-58
2022/01/08 03:26:26;;;;;;;25.33;17.50;;;;;;;7.23;93.03;99649.69;5073640;28;20194;-58
2022/01/08 03:28:53;;;;;;;26.17;17.67;;;;;;;7.20;92.64;99652.19;5073413;28;20238;-58
2022/01/08 03:31:22;;;;;;;24.40;16.90;;;;;;;7.15;93.46;99657.13;5073511;28;20186;-58
2022/01/08 03:33:51;;;;;;;24.43;17.33;;;;;;;7.17;93.92;99649.53;5073130;28;20204;-58
2022/01/08 03:36:19;;;;;;;23.17;17.03;;;;;;;7.19;94.01;99653.00;5073524;28;20284;-58
2022/01/08 03:38:46;;;;;;;22.63;16.23;;;;;;;7.12;94.17;99649.38;5073301;28;20187;-58
2022/01/08 03:41:13;;;;;;;25.93;17.20;;;;;;;7.08;93.96;99650.97;5072893;28;20224;-58
2022/01/08 03:43:40;;;;;;;23.60;16.40;;;;;;;7.09;94.45;99652.69;5073125;28;20563;-58
2022/01/08 03:46:07;;;;;;;23.20;16.53;;;;;;;7.10;94.06;99643.34;5073062;28;20197;-58
2022/01/08 03:48:46;;;;;;;26.13;18.27;;;;;;;7.15;93.72;99644.34;5072752;28;20193;-58
2022/01/08 03:51:13;;;;;;;24.57;18.43;;;;;;;7.18;93.35;99647.00;5052368;28;20667;-58
2022/01/08 03:53:41;;;;;;;26.83;19.13;;;;;;;7.20;93.27;99640.25;5053084;28;20193;-58
2022/01/08 03:56:08;;;;;;;24.03;17.77;;;;;;;7.05;92.79;99604.03;5052994;28;20188;-58
2022/01/08 03:58:35;;;;;;;26.43;19.87;;;;;;;7.23;93.19;99640.34;5052906;28;20277;-58
2022/01/08 04:01:02;;;;;;;28.73;18.63;;;;;;;7.21;93.03;99634.34;5052552;28;20325;-58
2022/01/08 04:03:29;;;;;;;28.90;18.93;;;;;;;7.22;93.03;99630.97;5052761;28;20575;-58
2022/01/08 04:05:57;;;;;;;23.43;18.23;;;;;;;7.18;93.66;99625.69;5052873;28;20198;-58
2022/01/08 04:08:24;;;;;;;23.20;17.70;;;;;;;7.24;93.76;99642.09;5054441;28;20297;-58
2022/01/08 04:10:51;;;;;;;25.03;18.10;;;;;;;7.23;94.00;99622.47;5072638;28;20570;-58
2022/01/08 04:13:22;;;;;;;25.47;18.33;;;;;;;7.21;93.54;99634.34;5073035;28;20233;-58
2022/01/08 04:15:52;;;;;;;23.47;16.70;;;;;;;7.15;93.59;99623.91;5072630;28;20201;-58
2022/01/08 04:18:19;;;;;;;26.33;18.23;;;;;;;7.11;93.04;99633.16;5072415;28;20562;-58
2022/01/08 04:21:07;;;;;;;28.27;22.70;;;;;;;7.20;93.88;99631.75;5071190;28;20446;-58
2022/01/08 04:23:36;;;;;;;24.03;17.73;;;;;;;7.14;94.11;99635.81;5072256;28;20193;-58
2022/01/08 04:26:04;;;;;;;25.43;18.63;;;;;;;7.07;93.94;99633.91;5072154;28;20260;-58
2022/01/08 04:28:31;;;;;;;24.43;18.17;;;;;;;7.13;94.65;99629.00;5072212;28;20240;-58
2022/01/08 04:30:58;;;;;;;24.50;18.00;;;;;;;7.03;94.97;99633.78;5072178;28;20200;-58
2022/01/08 04:33:24;;;;;;;22.73;17.13;;;;;;;7.04;95.52;99626.13;5072412;28;20193;-58
2022/01/08 04:35:51;;;;;;;25.63;17.93;;;;;;;7.11;95.07;99633.16;5072289;28;20209;-58
2022/01/08 04:38:18;;;;;;;28.10;20.27;;;;;;;6.88;94.54;99606.03;5072048;28;20291;-58
2022/01/08 04:40:47;;;;;;;32.93;20.80;;;;;;;7.07;94.93;99633.03;5071818;28;20219;-58
2022/01/08 04:43:14;;;;;;;28.87;20.73;;;;;;;7.10;94.29;99630.56;5072012;28;20205;-58
2022/01/08 04:45:42;;;;;;;33.60;21.47;;;;;;;7.16;93.76;99635.88;5072003;28;20252;-58
2022/01/08 04:48:09;;;;;;;30.03;20.93;;;;;;;7.12;94.29;99636.59;5071751;28;20194;-58
2022/01/08 04:50:36;;;;;;;34.07;22.77;;;;;;;7.19;93.98;99628.31;5071833;28;20213;-57
2022/01/08 04:53:03;;;;;;;36.27;22.90;;;;;;;7.17;93.59;99627.38;5071385;28;20198;-57
2022/01/08 04:55:30;;;;;;;30.80;21.63;;;;;;;7.16;93.93;99630.78;5071597;28;20279;-58
2022/01/08 04:57:58;;;;;;;32.47;22.00;;;;;;;7.23;93.42;99631.81;5071319;28;20201;-57
2022/01/08 05:00:25;;;;;;;30.60;21.07;;;;;;;7.21;93.82;99629.22;5071475;28;20198;-58
2022/01/08 05:02:52;;;;;;;30.53;20.80;;;;;;;7.18;93.41;99629.13;5070670;28;20195;-57
2022/01/08 05:05:19;;;;;;;31.37;20.53;;;;;;;7.20;93.31;99617.25;5071399;28;20226;-57
2022/01/08 05:07:46;;;;;;;29.00;21.13;;;;;;;7.17;93.19;99622.28;5071222;28;20282;-57
2022/01/08 05:10:13;;;;;;;33.77;22.47;;;;;;;7.21;93.75;99616.44;5070924;28;20587;-58
2022/01/08 05:12:40;;;;;;;25.83;19.07;;;;;;;7.18;93.33;99615.47;5070712;28;20190;-59
2022/01/08 05:15:10;;;;;;;29.80;20.83;;;;;;;7.22;93.23;99607.97;5070825;28;20209;-57
2022/01/08 05:17:39;;;;;;;31.77;21.87;;;;;;;7.11;93.33;99609.31;5071021;28;20189;-56
2022/01/08 05:20:09;;;;;;;30.67;21.03;;;;;;;7.15;93.52;99608.59;5070533;28;20195;-57
2022/01/08 05:22:49;;;;;;;30.70;20.63;;;;;;;7.13;93.45;99605.13;5070694;28;20752;-57
2022/01/08 05:25:17;;;;;;;27.10;19.87;;;;;;;7.18;93.43;99608.69;5071216;28;20209;-57
2022/01/08 05:27:44;;;;;;;32.83;21.43;;;;;;;7.10;93.51;99594.81;5071007;28;20672;-58
2022/01/08 05:30:14;;;;;;;28.00;20.30;;;;;;;7.16;93.51;99610.34;5070879;28;20285;-58
2022/01/08 05:32:40;;;;;;;32.03;22.27;;;;;;;7.13;93.82;99605.13;5070875;28;20595;-58
2022/01/08 05:35:08;;;;;;;30.40;21.97;;;;;;;7.16;93.90;99605.22;5071246;28;20199;-58
2022/01/08 05:37:35;;;;;;;28.77;20.60;;;;;;;7.18;93.61;99600.16;5071001;28;20210;-58
2022/01/08 05:40:02;;;;;;;31.13;22.47;;;;;;;7.12;93.60;99601.69;5070817;28;20285;-58
2022/01/08 05:42:29;;;;;;;31.17;21.57;;;;;;;7.05;93.67;99598.91;5070670;28;20319;-58
2022/01/08 05:44:56;;;;;;;29.53;20.80;;;;;;;7.05;92.87;99599.78;5070324;28;20198;-58
2022/01/08 05:47:28;;;;;;;30.77;24.38;;;;;;;7.14;94.20;99596.66;5069529;28;20436;-58
2022/01/08 05:49:54;;;;;;;29.70;21.87;;;;;;;7.24;93.17;99610.56;5070730;28;20188;-58
2022/01/08 05:52:21;;;;;;;31.07;21.00;;;;;;;7.22;92.55;99615.66;5070709;28;20191;-58
2022/01/08 05:54:48;;;;;;;31.37;21.03;;;;;;;7.25;92.62;99615.72;5070943;28;20639;-58
2022/01/08 05:57:15;;;;;;;29.93;21.63;;;;;;;7.04;92.72;99589.50;5070736;28;20275;-58
2022/01/08 05:59:43;;;;;;;31.27;22.37;;;;;;;7.24;92.35;99616.56;5070600;28;20194;-58
2022/01/08 06:02:10;;;;;;;33.37;22.00;;;;;;;7.26;92.46;99620.00;5070569;28;20222;-58
2022/01/08 06:04:38;;;;;;;33.33;22.10;;;;;;;7.25;92.79;99614.88;5070527;28;20197;-58
2022/01/08 06:07:05;;;;;;;32.80;21.17;;;;;;;7.30;93.02;99621.84;5070345;28;20196;-58
2022/01/08 06:09:32;;;;;;;31.73;22.33;;;;;;;7.29;93.14;99616.69;5070354;28;20284;-58
2022/01/08 06:11:59;;;;;;;31.87;22.27;;;;;;;7.29;92.71;99626.91;5070387;28;20212;-58
2022/01/08 06:14:26;;;;;;;32.73;22.27;;;;;;;7.33;93.47;99616.84;5070066;28;20204;-58
2022/01/08 06:16:53;;;;;;;33.97;21.80;;;;;;;7.33;93.45;99626.19;5070238;28;20641;-58
2022/01/08 06:19:20;;;;;;;34.90;24.10;;;;;;;7.32;93.61;99612.53;5069951;28;20207;-58
2022/01/08 06:21:48;;;;;;;33.67;23.00;;;;;;;7.33;93.55;99616.84;5070022;28;20230;-58
2022/01/08 06:24:15;;;;;;;33.53;22.87;;;;;;;7.31;93.48;99626.13;5070237;28;20274;-56
2022/01/08 06:26:42;;;;;;;35.03;23.40;;;;;;;7.32;93.48;99616.78;5070158;28;20292;-56
2022/01/08 06:29:09;;;;;;;33.87;22.73;;;;;;;7.33;93.16;99621.09;5069848;28;20226;-56
2022/01/08 06:31:36;;;;;;;31.97;21.20;;;;;;;7.33;92.70;99621.09;5069814;28;21014;-56
2022/01/08 06:34:03;;;;;;;30.90;20.83;;;;;;;7.29;92.58;99622.66;5070007;28;20284;-57
2022/01/08 06:36:30;;;;;;;32.03;20.10;;;;;;;7.33;93.08;99619.41;5070008;28;20678;-58
2022/01/08 06:38:59;;;;;;;30.20;20.97;;;;;;;7.36;92.78;99626.28;5070022;28;20199;-58
2022/01/08 06:41:25;;;;;;;29.63;20.10;;;;;;;7.27;93.36;99611.53;5070068;28;20229;-57
2022/01/08 06:43:52;;;;;;;30.33;19.27;;;;;;;7.29;93.60;99620.13;5069686;28;20635;-56
2022/01/08 06:46:19;;;;;;;30.77;19.63;;;;;;;7.29;93.42;99624.34;5070111;28;20206;-57
2022/01/08 06:48:46;;;;;;;28.10;17.67;;;;;;;7.29;93.73;99619.25;5069867;28;20208;-57
2022/01/08 06:51:13;;;;;;;23.40;17.00;;;;;;;7.28;93.49;99620.09;5069398;28;20196;-58
2022/01/08 06:53:40;;;;;;;23.87;14.73;;;;;;;7.29;93.62;99627.78;5068863;28;20186;-58
2022/01/08 06:56:08;;;;;;;23.90;18.03;;;;;;;7.25;93.31;99620.81;5074547;28;20277;-58
2022/01/08 06:58:35;;;;;;;25.70;18.57;;;;;;;7.29;93.54;99620.13;5068217;28;20548;-58
2022/01/08 07:01:02;;;;;;;27.03;18.20;;;;;;;7.30;94.14;99616.75;5066645;28;20278;-58
2022/01/08 07:03:29;;;;;;;28.80;19.30;;;;;;;7.34;94.21;99613.44;5069562;28;20187;-58
2022/01/08 07:05:56;;;;;;;27.60;19.57;;;;;;;7.38;94.30;99615.28;5069279;28;20188;-57
2022/01/08 07:08:23;;;;;;;26.40;19.23;;;;;;;7.34;93.68;99613.44;5069150;28;20300;-57
2022/01/08 07:10:50;;;;;;;32.53;21.27;;;;;;;7.38;94.45;99607.63;5069508;28;20185;-57
2022/01/08 07:13:18;;;;;;;29.07;19.60;;;;;;;7.40;94.30;99605.97;5069347;28;20216;-57
2022/01/08 07:15:45;;;;;;;29.60;20.53;;;;;;;7.39;93.89;99611.91;5049515;28;20681;-59
2022/01/08 07:18:12;;;;;;;32.10;25.13;;;;;;;7.46;94.56;99615.53;5048415;28;20980;-58
2022/01/08 07:20:39;;;;;;;28.83;21.83;;;;;;;7.58;93.77;99611.63;5049420;28;20195;-58
2022/01/08 07:23:06;;;;;;;32.53;20.73;;;;;;;7.48;93.51;99594.28;5049506;28;20577;-58
2022/01/08 07:25:33;;;;;;;29.50;21.70;;;;;;;7.58;93.55;99611.63;5049794;28;20326;-58
2022/01/08 07:28:00;;;;;;;30.37;19.63;;;;;;;7.63;93.23;99609.22;5052816;28;20233;-58
2022/01/08 07:30:28;;;;;;;27.43;18.67;;;;;;;7.66;92.76;99609.31;5053207;28;20203;-58
2022/01/08 07:32:55;;;;;;;30.40;21.13;;;;;;;7.69;92.68;99609.41;5053432;28;20567;-59
2022/01/08 07:35:23;;;;;;;31.13;21.57;;;;;;;7.73;93.04;99603.56;5053132;28;20280;-59
2022/01/08 07:37:51;;;;;;;33.30;22.03;;;;;;;7.77;92.66;99605.38;5053016;28;20613;-59
2022/01/08 07:40:19;;;;;;;33.10;22.00;;;;;;;7.76;92.61;99602.78;5053012;28;20204;-59
2022/01/08 07:42:46;;;;;;;34.03;23.10;;;;;;;7.79;92.01;99595.19;5053123;28;20228;-59
2022/01/08 07:45:14;;;;;;;33.80;23.63;;;;;;;7.79;92.57;99596.06;5052705;28;20191;-59
2022/01/08 07:47:42;;;;;;;31.53;21.03;;;;;;;7.75;92.28;99601.06;5052701;28;20282;-60
2022/01/08 07:50:10;;;;;;;28.80;20.63;;;;;;;7.76;92.25;99601.09;5052759;28;20196;-59
2022/01/08 07:52:37;;;;;;;33.10;22.17;;;;;;;7.73;92.32;99601.88;5052695;28;20283;-57
2022/01/08 07:55:05;;;;;;;30.43;21.10;;;;;;;7.78;92.71;99593.44;5052967;28;20276;-57
2022/01/08 07:57:31;;;;;;;31.83;22.23;;;;;;;7.76;92.70;99608.75;5052880;28;20626;-57
2022/01/08 07:59:58;;;;;;;27.53;20.23;;;;;;;7.76;93.22;99605.31;5052589;28;20196;-56
2022/01/08 08:02:25;;;;;;;22.50;17.63;;;;;;;7.76;93.46;99600.22;5052336;28;20216;-56
2022/01/08 08:04:54;;;;;;;23.27;16.50;;;;;;;7.63;93.64;99602.44;5052802;28;20202;-56
2022/01/08 08:07:29;;;;;;;22.83;15.97;;;;;;;7.47;93.94;99594.25;5052827;28;20198;-56
2022/01/08 08:09:56;;;;;;;25.07;17.03;;;;;;;7.49;94.45;99588.38;5052553;28;20196;-56
2022/01/08 08:12:23;;;;;;;30.90;20.90;;;;;;;7.51;94.66;99602.06;5052789;28;20292;-56
2022/01/08 08:14:50;;;;;;;28.50;18.97;;;;;;;7.55;94.65;99593.63;5052552;28;20262;-56
2022/01/08 08:17:17;;;;;;;23.00;18.67;;;;;;;7.72;94.73;99599.25;5051466;28;20451;-56
2022/01/08 08:19:44;;;;;;;23.30;16.40;;;;;;;7.82;93.47;99596.16;5052476;28;20198;-56
2022/01/08 08:22:13;;;;;;;21.73;16.30;;;;;;;7.85;92.72;99591.13;5052245;28;20316;-56
2022/01/08 08:24:40;;;;;;;22.50;15.47;;;;;;;7.81;91.71;99586.72;5052387;28;20193;-56
2022/01/08 08:27:07;;;;;;;25.57;18.13;;;;;;;7.77;92.05;99584.94;5051968;28;20202;-56
2022/01/08 08:29:34;;;;;;;29.80;20.00;;;;;;;7.79;92.29;99590.06;5052037;28;20201;-56
2022/01/08 08:32:01;;;;;;;28.73;20.73;;;;;;;7.78;92.37;99584.09;5051965;28;20204;-56
2022/01/08 08:34:28;;;;;;;30.17;21.67;;;;;;;7.84;92.54;99584.25;5055925;28;20215;-56
2022/01/08 08:36:55;;;;;;;32.50;22.20;;;;;;;7.90;92.78;99584.44;5071747;28;20235;-56
2022/01/08 08:39:24;;;;;;;34.03;24.83;;;;;;;7.94;93.13;99586.25;5071646;28;20193;-56
2022/01/08 08:41:51;;;;;;;36.17;25.07;;;;;;;7.90;92.88;99586.13;5071682;28;20198;-56
2022/01/08 08:44:18;;;;;;;36.37;25.37;;;;;;;7.91;92.81;99572.53;5071673;28;20287;-56
2022/01/08 08:46:45;;;;;;;37.00;25.63;;;;;;;7.91;92.79;99569.97;5071931;28;20194;-56
2022/01/08 08:49:12;;;;;;;36.00;24.47;;;;;;;7.97;93.05;99567.56;5071486;28;20755;-57
2022/01/08 08:51:39;;;;;;;36.80;25.43;;;;;;;7.96;93.03;99566.72;5071555;28;20195;-56
2022/01/08 08:54:06;;;;;;;34.17;24.10;;;;;;;7.83;93.55;99569.72;5071475;28;20197;-56
2022/01/08 08:56:34;;;;;;;38.40;26.63;;;;;;;7.77;93.78;99563.59;5071037;28;20519;-57
2022/01/08 08:59:01;;;;;;;38.33;28.33;;;;;;;7.89;94.53;99561.38;5071036;28;20193;-56
2022/01/08 09:01:28;;;;;;;48.00;30.63;;;;;;;7.92;94.76;99553.78;5071269;28;20288;-56
2022/01/08 09:03:55;;;;;;;49.63;34.20;;;;;;;7.98;94.51;99546.28;5071182;28;20233;-56
2022/01/08 09:06:22;;;;;;;50.50;31.53;;;;;;;7.97;93.48;99549.66;5071083;28;20201;-56
2022/01/08 09:08:49;;;;;;;34.73;22.83;;;;;;;7.91;93.23;99539.28;5071201;28;20209;-56
2022/01/08 09:11:16;;;;;;;36.23;24.10;;;;;;;7.98;92.56;99541.16;5071103;28;20287;-57
2022/01/08 09:13:45;;;;;;;46.27;30.70;;;;;;;7.90;93.02;99534.97;5071313;28;20190;-57
2022/01/08 09:16:12;;;;;;;39.67;25.63;;;;;;;7.92;93.37;99529.06;5070870;28;20195;-56
2022/01/08 09:18:41;;;;;;;39.07;27.87;;;;;;;7.99;93.53;99520.75;5071155;28;20234;-56
2022/01/08 09:21:09;;;;;;;39.20;28.33;;;;;;;7.89;93.23;99515.31;5071106;28;20261;-57
2022/01/08 09:23:37;;;;;;;42.20;30.33;;;;;;;7.93;93.34;99510.34;5070925;28;20222;-56
2022/01/08 09:26:04;;;;;;;37.70;24.93;;;;;;;8.07;92.36;99520.94;5070760;28;20314;-56
2022/01/08 09:28:32;;;;;;;40.37;29.13;;;;;;;8.09;92.59;99503.94;5070717;28;20674;-56
2022/01/08 09:31:01;;;;;;;43.57;31.17;;;;;;;8.22;92.74;99508.53;5071020;28;20197;-55
2022/01/08 09:33:28;;;;;;;39.33;25.43;;;;;;;8.13;92.33;99504.03;5070551;28;20582;-56
2022/01/08 09:35:56;;;;;;;38.80;30.45;;;;;;;8.18;92.56;99496.50;5066090;28;20503;-56
2022/01/08 09:38:23;;;;;;;37.70;26.60;;;;;;;8.24;92.99;99492.38;5068206;28;20195;-55
2022/01/08 09:40:50;;;;;;;34.13;25.67;;;;;;;8.30;93.76;99489.16;5070095;28;20196;-56
2022/01/08 09:43:19;;;;;;;34.70;25.77;;;;;;;8.33;93.71;99484.13;5070586;28;20223;-56
2022/01/08 09:45:46;;;;;;;41.53;28.40;;;;;;;8.33;93.39;99481.56;5070509;28;20199;-56
2022/01/08 09:48:14;;;;;;;45.90;30.75;;;;;;;8.30;93.66;99472.09;5070424;28;20774;-57
2022/01/08 09:50:42;;;;;;;38.73;26.27;;;;;;;8.42;94.06;99475.78;5069896;28;20733;-56
2022/01/08 09:53:09;;;;;;;39.63;27.10;;;;;;;8.52;93.86;99465.81;5070076;28;20197;-56
2022/01/08 09:55:36;;;;;;;43.50;28.43;;;;;;;8.62;93.90;99465.22;5069793;28;20280;-57
2022/01/08 09:58:03;;;;;;;33.43;22.83;;;;;;;8.75;93.20;99453.53;5070025;28;20303;-57
2022/01/08 10:00:32;;;;;;;34.53;24.30;;;;;;;8.82;91.92;99450.28;5070201;28;20210;-57
2022/01/08 10:03:17;;;;;;;31.63;23.83;;;;;;;8.87;91.75;99439.28;5070041;28;20218;-57
2022/01/08 10:05:46;;;;;;;29.37;21.30;;;;;;;8.98;91.09;99438.69;5069763;28;20180;-56
2022/01/08 10:08:15;;;;;;;27.97;19.57;;;;;;;9.07;91.39;99442.28;5070580;28;20202;-56
2022/01/08 10:10:42;;;;;;;26.17;19.73;;;;;;;9.11;90.33;99440.66;5070606;28;20202;-56
2022/01/08 10:13:23;;;;;;;17.23;13.87;;;;;;;8.89;89.01;99427.41;5070368;28;20194;-56
2022/01/08 10:18:39;;;;;;;21.87;16.73;;;;;;;8.98;89.63;99431.00;5070438;28;20558;-57
2022/01/08 10:21:17;;;;;;;17.57;14.97;;;;;;;9.06;90.27;99425.22;5070423;28;20194;-56
2022/01/08 10:23:46;;;;;;;20.47;15.73;;;;;;;9.09;91.07;99419.28;5069964;28;20318;-56
2022/01/08 10:26:16;;;;;;;18.53;14.27;;;;;;;9.12;90.03;99419.34;5069942;28;20196;-55
2022/01/08 10:28:45;;;;;;;15.27;12.13;;;;;;;9.11;90.83;99417.59;5069675;28;20273;-57
2022/01/08 10:31:18;;;;;;;15.20;12.90;;;;;;;9.06;90.37;99416.66;5068288;28;20216;-55
2022/01/08 10:33:49;;;;;;;16.13;11.63;;;;;;;9.07;90.34;99408.97;5070417;28;20189;-57
2022/01/08 10:36:20;;;;;;;15.85;14.15;;;;;;;9.06;90.31;99417.53;5069053;28;20491;-57
2022/01/08 10:38:51;;;;;;;17.00;13.90;;;;;;;9.04;90.09;99405.50;5070035;28;20195;-57
2022/01/08 10:41:19;;;;;;;12.13;9.63;;;;;;;9.10;89.56;99398.78;5069893;28;20198;-56
2022/01/08 10:43:46;;;;;;;13.60;11.53;;;;;;;9.12;88.95;99404.81;5068694;28;20211;-56
2022/01/08 10:46:16;;;;;;;14.17;11.60;;;;;;;9.13;89.53;99391.16;5067301;28;20228;-57
2022/01/08 10:48:47;;;;;;;13.03;10.87;;;;;;;9.06;89.18;99394.47;5067057;28;20263;-56
2022/01/08 10:51:20;;;;;;;14.03;10.67;;;;;;;9.02;89.25;99392.66;5069373;28;20204;-56
2022/01/08 10:54:03;;;;;;;9.93;8.97;;;;;;;9.01;89.19;99382.38;5066398;28;20647;-56
2022/01/08 10:56:32;;;;;;;12.40;11.10;;;;;;;9.08;89.64;99386.78;5066753;28;20194;-57
2022/01/08 10:59:05;;;;;;;16.50;13.40;;;;;;;9.13;90.30;99380.91;5068706;28;20318;-56
2022/01/08 11:01:46;;;;;;;14.57;10.67;;;;;;;9.17;90.02;99375.03;5068082;28;20185;-56
2022/01/08 11:04:16;;;;;;;13.43;10.10;;;;;;;9.21;89.71;99366.56;5070336;28;20242;-56
2022/01/08 11:06:58;;;;;;;12.83;9.77;;;;;;;9.24;88.98;99361.50;5072824;28;20302;-56
2022/01/08 11:09:27;;;;;;;11.80;9.33;;;;;;;9.18;88.74;99363.94;5071507;28;20202;-56
2022/01/08 11:11:55;;;;;;;10.33;8.93;;;;;;;8.86;88.01;99331.69;5073208;28;20193;-56
2022/01/08 11:17:06;;;;;;;14.17;10.27;;;;;;;8.99;88.88;99364.41;5072103;28;20210;-56
2022/01/08 11:19:36;;;;;;;12.27;9.60;;;;;;;8.92;89.42;99349.75;5071309;28;20194;-57
2022/01/08 11:22:05;;;;;;;13.20;9.90;;;;;;;8.88;89.61;99353.06;5073036;28;21014;-57
2022/01/08 11:24:33;;;;;;;13.33;9.63;;;;;;;8.93;90.62;99350.63;5072706;28;20211;-56
2022/01/08 11:27:00;;;;;;;14.50;11.63;;;;;;;9.02;91.28;99350.78;5072973;28;20190;-56
2022/01/08 11:29:31;;;;;;;17.47;10.87;;;;;;;9.05;91.08;99356.84;5073342;28;20210;-56
2022/01/08 11:32:00;;;;;;;16.83;12.17;;;;;;;9.06;90.92;99350.88;5072885;28;20197;-57
2022/01/08 11:34:30;;;;;;;15.60;13.10;;;;;;;9.09;90.75;99350.09;5072996;28;20187;-56
2022/01/08 11:37:00;;;;;;;15.90;12.20;;;;;;;9.06;90.83;99350.03;5069460;28;20222;-57
2022/01/08 11:39:28;;;;;;;16.30;11.90;;;;;;;9.03;90.16;99332.88;5053121;28;20237;-57
2022/01/08 11:41:56;;;;;;;14.33;11.87;;;;;;;9.00;89.81;99335.38;5053241;28;20244;-57
2022/01/08 11:44:26;;;;;;;16.67;12.60;;;;;;;8.98;90.29;99334.50;5052793;28;20216;-57
2022/01/08 11:46:54;;;;;;;15.67;11.73;;;;;;;8.85;90.05;99332.50;5052795;28;20199;-56
2022/01/08 11:49:22;;;;;;;17.03;11.67;;;;;;;8.91;90.14;99324.94;5052836;28;20586;-56
2022/01/08 11:51:48;;;;;;;14.63;11.33;;;;;;;8.97;90.35;99321.66;5052772;28;20314;-57